sensor_id;sensor_type;location;lat;lon;timestamp;temperature;humidity
4501;DHT22;2263;54.654;9.410;2022-07-23T00:01:00;18.70;67.70
4501;DHT22;2263;54.654;9.410;2022-07-23T00:03:27;18.70;67.60
4501;DHT22;2263;54.654;9.410;2022-07-23T00:05:54;18.70;67.70
4501;DHT22;2263;54.654;9.410;2022-07-23T00:08:22;18.60;67.40
4501;DHT22;2263;54.654;9.410;2022-07-23T00:10:49;18.70;67.60
4501;DHT22;2263;54.654;9.410;2022-07-23T00:13:16;18.60;67.50
4501;DHT22;2263;54.654;9.410;2022-07-23T00:15:43;18.60;67.50
4501;DHT22;2263;54.654;9.410;2022-07-23T00:18:11;18.60;67.50
4501;DHT22;2263;54.654;9.410;2022-07-23T00:20:38;18.60;67.60
4501;DHT22;2263;54.654;9.410;2022-07-23T00:23:05;18.60;67.40
4501;DHT22;2263;54.654;9.410;2022-07-23T00:25:32;18.60;67.50
4501;DHT22;2263;54.654;9.410;2022-07-23T00:28:00;18.60;67.50
4501;DHT22;2263;54.654;9.410;2022-07-23T00:30:28;18.50;67.50
4501;DHT22;2263;54.654;9.410;2022-07-23T00:33:00;18.60;67.60
4501;DHT22;2263;54.654;9.410;2022-07-23T00:35:37;18.50;67.50
4501;DHT22;2263;54.654;9.410;2022-07-23T00:38:10;18.50;67.30
4501;DHT22;2263;54.654;9.410;2022-07-23T00:40:38;18.50;67.50
4501;DHT22;2263;54.654;9.410;2022-07-23T00:43:06;18.50;67.50
4501;DHT22;2263;54.654;9.410;2022-07-23T00:45:33;18.50;67.60
4501;DHT22;2263;54.654;9.410;2022-07-23T00:48:00;18.50;67.60
4501;DHT22;2263;54.654;9.410;2022-07-23T00:50:28;18.50;67.60
4501;DHT22;2263;54.654;9.410;2022-07-23T00:52:56;18.50;67.50
4501;DHT22;2263;54.654;9.410;2022-07-23T00:55:23;18.50;67.60
4501;DHT22;2263;54.654;9.410;2022-07-23T00:57:51;18.50;67.60
4501;DHT22;2263;54.654;9.410;2022-07-23T01:00:19;18.50;67.60
4501;DHT22;2263;54.654;9.410;2022-07-23T01:02:47;18.50;67.60
4501;DHT22;2263;54.654;9.410;2022-07-23T01:05:14;18.40;67.50
4501;DHT22;2263;54.654;9.410;2022-07-23T01:07:42;18.50;67.60
4501;DHT22;2263;54.654;9.410;2022-07-23T01:10:09;18.40;68.30
4501;DHT22;2263;54.654;9.410;2022-07-23T01:12:57;18.40;67.60
4501;DHT22;2263;54.654;9.410;2022-07-23T01:15:24;18.40;67.60
4501;DHT22;2263;54.654;9.410;2022-07-23T01:17:52;18.40;67.70
4501;DHT22;2263;54.654;9.410;2022-07-23T01:20:20;18.40;67.50
4501;DHT22;2263;54.654;9.410;2022-07-23T01:22:47;18.40;67.60
4501;DHT22;2263;54.654;9.410;2022-07-23T01:25:15;18.40;67.70
4501;DHT22;2263;54.654;9.410;2022-07-23T01:27:42;18.40;67.70
4501;DHT22;2263;54.654;9.410;2022-07-23T01:30:11;18.30;67.70
4501;DHT22;2263;54.654;9.410;2022-07-23T01:32:38;18.40;67.60
4501;DHT22;2263;54.654;9.410;2022-07-23T01:35:06;18.30;67.80
4501;DHT22;2263;54.654;9.410;2022-07-23T01:37:34;18.30;67.80
4501;DHT22;2263;54.654;9.410;2022-07-23T01:40:01;18.40;67.70
4501;DHT22;2263;54.654;9.410;2022-07-23T01:42:29;18.30;67.60
4501;DHT22;2263;54.654;9.410;2022-07-23T01:44:57;18.30;67.80
4501;DHT22;2263;54.654;9.410;2022-07-23T01:47:24;18.30;67.60
4501;DHT22;2263;54.654;9.410;2022-07-23T01:49:51;18.30;67.70
4501;DHT22;2263;54.654;9.410;2022-07-23T01:52:19;18.30;67.70
4501;DHT22;2263;54.654;9.410;2022-07-23T01:54:46;18.30;67.80
4501;DHT22;2263;54.654;9.410;2022-07-23T01:57:13;18.20;67.60
4501;DHT22;2263;54.654;9.410;2022-07-23T01:59:40;18.30;67.80
4501;DHT22;2263;54.654;9.410;2022-07-23T02:02:07;18.30;67.70
4501;DHT22;2263;54.654;9.410;2022-07-23T02:04:35;18.30;68.70
4501;DHT22;2263;54.654;9.410;2022-07-23T02:07:04;18.30;67.80
4501;DHT22;2263;54.654;9.410;2022-07-23T02:09:31;18.20;67.70
4501;DHT22;2263;54.654;9.410;2022-07-23T02:11:59;18.20;67.80
4501;DHT22;2263;54.654;9.410;2022-07-23T02:14:26;18.20;67.70
4501;DHT22;2263;54.654;9.410;2022-07-23T02:16:53;18.20;67.80
4501;DHT22;2263;54.654;9.410;2022-07-23T02:19:21;18.20;67.80
4501;DHT22;2263;54.654;9.410;2022-07-23T02:21:48;18.10;67.70
4501;DHT22;2263;54.654;9.410;2022-07-23T02:24:16;18.20;67.90
4501;DHT22;2263;54.654;9.410;2022-07-23T02:26:43;18.20;67.80
4501;DHT22;2263;54.654;9.410;2022-07-23T02:29:10;18.20;68.70
4501;DHT22;2263;54.654;9.410;2022-07-23T02:31:38;18.10;67.90
4501;DHT22;2263;54.654;9.410;2022-07-23T02:34:05;18.10;67.90
4501;DHT22;2263;54.654;9.410;2022-07-23T02:36:32;18.10;67.80
4501;DHT22;2263;54.654;9.410;2022-07-23T02:39:00;18.10;67.90
4501;DHT22;2263;54.654;9.410;2022-07-23T02:41:27;18.10;67.80
4501;DHT22;2263;54.654;9.410;2022-07-23T02:43:55;18.10;67.90
4501;DHT22;2263;54.654;9.410;2022-07-23T02:46:22;18.10;68.00
4501;DHT22;2263;54.654;9.410;2022-07-23T02:48:49;18.10;68.00
4501;DHT22;2263;54.654;9.410;2022-07-23T02:51:16;18.10;68.00
4501;DHT22;2263;54.654;9.410;2022-07-23T02:53:44;18.10;68.10
4501;DHT22;2263;54.654;9.410;2022-07-23T02:56:14;18.10;68.00
4501;DHT22;2263;54.654;9.410;2022-07-23T02:58:41;18.00;68.00
4501;DHT22;2263;54.654;9.410;2022-07-23T03:01:08;18.00;68.00
4501;DHT22;2263;54.654;9.410;2022-07-23T03:03:36;18.00;68.10
4501;DHT22;2263;54.654;9.410;2022-07-23T03:06:03;18.00;68.30
4501;DHT22;2263;54.654;9.410;2022-07-23T03:08:30;18.00;68.30
4501;DHT22;2263;54.654;9.410;2022-07-23T03:10:58;18.00;68.40
4501;DHT22;2263;54.654;9.410;2022-07-23T03:13:25;18.00;68.40
4501;DHT22;2263;54.654;9.410;2022-07-23T03:15:52;18.00;68.40
4501;DHT22;2263;54.654;9.410;2022-07-23T03:18:19;18.00;68.50
4501;DHT22;2263;54.654;9.410;2022-07-23T03:20:46;18.00;68.50
4501;DHT22;2263;54.654;9.410;2022-07-23T03:23:13;18.00;68.60
4501;DHT22;2263;54.654;9.410;2022-07-23T03:25:41;18.00;69.00
4501;DHT22;2263;54.654;9.410;2022-07-23T03:28:08;18.00;68.40
4501;DHT22;2263;54.654;9.410;2022-07-23T03:30:35;18.00;68.50
4501;DHT22;2263;54.654;9.410;2022-07-23T03:33:02;18.00;68.50
4501;DHT22;2263;54.654;9.410;2022-07-23T03:35:30;18.00;68.50
4501;DHT22;2263;54.654;9.410;2022-07-23T03:37:57;18.00;68.60
4501;DHT22;2263;54.654;9.410;2022-07-23T03:40:25;17.90;68.40
4501;DHT22;2263;54.654;9.410;2022-07-23T03:42:52;18.00;69.30
4501;DHT22;2263;54.654;9.410;2022-07-23T03:45:19;18.00;68.60
4501;DHT22;2263;54.654;9.410;2022-07-23T03:47:46;17.90;68.60
4501;DHT22;2263;54.654;9.410;2022-07-23T03:50:13;17.90;68.50
4501;DHT22;2263;54.654;9.410;2022-07-23T03:52:40;17.90;68.50
4501;DHT22;2263;54.654;9.410;2022-07-23T03:55:08;17.90;68.70
4501;DHT22;2263;54.654;9.410;2022-07-23T03:57:36;17.90;68.60
4501;DHT22;2263;54.654;9.410;2022-07-23T04:00:05;17.90;68.60
4501;DHT22;2263;54.654;9.410;2022-07-23T04:02:32;17.90;68.70
4501;DHT22;2263;54.654;9.410;2022-07-23T04:05:00;17.90;68.70
4501;DHT22;2263;54.654;9.410;2022-07-23T04:07:27;17.90;68.70
4501;DHT22;2263;54.654;9.410;2022-07-23T04:09:54;17.80;68.70
4501;DHT22;2263;54.654;9.410;2022-07-23T04:12:22;17.80;68.70
4501;DHT22;2263;54.654;9.410;2022-07-23T04:14:50;17.80;68.60
4501;DHT22;2263;54.654;9.410;2022-07-23T04:17:17;17.90;68.80
4501;DHT22;2263;54.654;9.410;2022-07-23T04:19:44;17.80;68.70
4501;DHT22;2263;54.654;9.410;2022-07-23T04:22:12;17.80;68.90
4501;DHT22;2263;54.654;9.410;2022-07-23T04:24:39;17.80;68.80
4501;DHT22;2263;54.654;9.410;2022-07-23T04:27:09;17.80;68.80
4501;DHT22;2263;54.654;9.410;2022-07-23T04:29:36;17.80;68.70
4501;DHT22;2263;54.654;9.410;2022-07-23T04:32:04;17.80;68.70
4501;DHT22;2263;54.654;9.410;2022-07-23T04:34:31;17.80;68.80
4501;DHT22;2263;54.654;9.410;2022-07-23T04:36:58;17.90;68.70
4501;DHT22;2263;54.654;9.410;2022-07-23T04:39:25;17.80;68.70
4501;DHT22;2263;54.654;9.410;2022-07-23T04:41:52;17.80;68.80
4501;DHT22;2263;54.654;9.410;2022-07-23T04:44:20;17.80;68.80
4501;DHT22;2263;54.654;9.410;2022-07-23T04:46:47;17.80;68.80
4501;DHT22;2263;54.654;9.410;2022-07-23T04:49:16;17.80;68.80
4501;DHT22;2263;54.654;9.410;2022-07-23T04:51:44;17.80;68.80
4501;DHT22;2263;54.654;9.410;2022-07-23T04:54:12;17.80;68.80
4501;DHT22;2263;54.654;9.410;2022-07-23T04:56:39;17.80;68.80
4501;DHT22;2263;54.654;9.410;2022-07-23T04:59:06;17.80;68.90
4501;DHT22;2263;54.654;9.410;2022-07-23T05:01:33;17.80;68.90
4501;DHT22;2263;54.654;9.410;2022-07-23T05:04:00;17.80;69.00
4501;DHT22;2263;54.654;9.410;2022-07-23T05:06:27;17.80;69.00
4501;DHT22;2263;54.654;9.410;2022-07-23T05:08:54;17.80;69.00
4501;DHT22;2263;54.654;9.410;2022-07-23T05:11:22;17.80;69.00
4501;DHT22;2263;54.654;9.410;2022-07-23T05:13:53;17.80;69.00
4501;DHT22;2263;54.654;9.410;2022-07-23T05:16:20;17.90;69.10
4501;DHT22;2263;54.654;9.410;2022-07-23T05:18:47;17.90;69.10
4501;DHT22;2263;54.654;9.410;2022-07-23T05:21:15;17.90;69.20
4501;DHT22;2263;54.654;9.410;2022-07-23T05:23:45;17.90;69.20
4501;DHT22;2263;54.654;9.410;2022-07-23T05:26:12;17.90;69.20
4501;DHT22;2263;54.654;9.410;2022-07-23T05:28:39;17.90;69.20
4501;DHT22;2263;54.654;9.410;2022-07-23T05:31:12;17.90;69.20
4501;DHT22;2263;54.654;9.410;2022-07-23T05:33:39;17.90;69.20
4501;DHT22;2263;54.654;9.410;2022-07-23T05:36:06;17.90;69.20
4501;DHT22;2263;54.654;9.410;2022-07-23T05:38:34;17.90;69.20
4501;DHT22;2263;54.654;9.410;2022-07-23T05:41:01;17.90;69.20
4501;DHT22;2263;54.654;9.410;2022-07-23T05:43:28;17.90;69.30
4501;DHT22;2263;54.654;9.410;2022-07-23T05:45:56;17.90;69.30
4501;DHT22;2263;54.654;9.410;2022-07-23T05:48:23;17.90;69.30
4501;DHT22;2263;54.654;9.410;2022-07-23T05:50:50;17.90;69.30
4501;DHT22;2263;54.654;9.410;2022-07-23T05:53:18;17.90;69.30
4501;DHT22;2263;54.654;9.410;2022-07-23T05:55:45;17.90;69.30
4501;DHT22;2263;54.654;9.410;2022-07-23T05:58:13;17.90;69.30
4501;DHT22;2263;54.654;9.410;2022-07-23T06:00:40;17.90;69.30
4501;DHT22;2263;54.654;9.410;2022-07-23T06:03:07;17.90;70.00
4501;DHT22;2263;54.654;9.410;2022-07-23T06:05:34;17.90;69.40
4501;DHT22;2263;54.654;9.410;2022-07-23T06:08:02;17.90;69.30
4501;DHT22;2263;54.654;9.410;2022-07-23T06:10:29;17.90;69.30
4501;DHT22;2263;54.654;9.410;2022-07-23T06:12:56;17.90;69.30
4501;DHT22;2263;54.654;9.410;2022-07-23T06:15:29;17.90;69.40
4501;DHT22;2263;54.654;9.410;2022-07-23T06:17:57;17.90;69.40
4501;DHT22;2263;54.654;9.410;2022-07-23T06:20:24;17.90;69.40
4501;DHT22;2263;54.654;9.410;2022-07-23T06:22:51;17.90;69.40
4501;DHT22;2263;54.654;9.410;2022-07-23T06:25:19;17.90;69.40
4501;DHT22;2263;54.654;9.410;2022-07-23T06:27:47;17.90;69.40
4501;DHT22;2263;54.654;9.410;2022-07-23T06:30:15;17.90;69.30
4501;DHT22;2263;54.654;9.410;2022-07-23T06:32:47;17.90;69.30
4501;DHT22;2263;54.654;9.410;2022-07-23T06:35:15;17.80;69.20
4501;DHT22;2263;54.654;9.410;2022-07-23T06:37:42;17.90;69.30
4501;DHT22;2263;54.654;9.410;2022-07-23T06:40:12;17.90;69.30
4501;DHT22;2263;54.654;9.410;2022-07-23T06:42:39;17.80;69.20
4501;DHT22;2263;54.654;9.410;2022-07-23T06:45:07;17.80;69.20
4501;DHT22;2263;54.654;9.410;2022-07-23T06:47:34;17.80;69.20
4501;DHT22;2263;54.654;9.410;2022-07-23T06:50:02;17.80;69.20
4501;DHT22;2263;54.654;9.410;2022-07-23T06:52:30;17.80;69.20
4501;DHT22;2263;54.654;9.410;2022-07-23T06:54:57;17.80;69.20
4501;DHT22;2263;54.654;9.410;2022-07-23T06:57:24;17.80;69.20
4501;DHT22;2263;54.654;9.410;2022-07-23T06:59:52;17.80;69.20
4501;DHT22;2263;54.654;9.410;2022-07-23T07:02:21;17.80;69.30
4501;DHT22;2263;54.654;9.410;2022-07-23T07:04:49;17.80;69.30
4501;DHT22;2263;54.654;9.410;2022-07-23T07:07:17;17.80;69.40
4501;DHT22;2263;54.654;9.410;2022-07-23T07:09:44;17.80;69.30
4501;DHT22;2263;54.654;9.410;2022-07-23T07:12:14;17.80;69.40
4501;DHT22;2263;54.654;9.410;2022-07-23T07:14:41;17.80;69.30
4501;DHT22;2263;54.654;9.410;2022-07-23T07:17:09;17.80;69.40
4501;DHT22;2263;54.654;9.410;2022-07-23T07:19:37;17.80;69.40
4501;DHT22;2263;54.654;9.410;2022-07-23T07:22:04;17.80;69.50
4501;DHT22;2263;54.654;9.410;2022-07-23T07:24:32;17.80;69.50
4501;DHT22;2263;54.654;9.410;2022-07-23T07:27:04;17.80;69.50
4501;DHT22;2263;54.654;9.410;2022-07-23T07:29:33;17.90;69.60
4501;DHT22;2263;54.654;9.410;2022-07-23T07:32:00;17.90;69.70
4501;DHT22;2263;54.654;9.410;2022-07-23T07:34:28;17.90;69.70
4501;DHT22;2263;54.654;9.410;2022-07-23T07:36:59;17.90;69.80
4501;DHT22;2263;54.654;9.410;2022-07-23T07:39:27;17.90;69.80
4501;DHT22;2263;54.654;9.410;2022-07-23T07:41:54;17.90;70.00
4501;DHT22;2263;54.654;9.410;2022-07-23T07:44:22;17.90;69.80
4501;DHT22;2263;54.654;9.410;2022-07-23T07:46:49;17.90;69.80
4501;DHT22;2263;54.654;9.410;2022-07-23T07:49:16;17.90;69.80
4501;DHT22;2263;54.654;9.410;2022-07-23T07:51:48;17.90;69.90
4501;DHT22;2263;54.654;9.410;2022-07-23T07:54:15;17.90;69.80
4501;DHT22;2263;54.654;9.410;2022-07-23T07:56:42;17.90;69.90
4501;DHT22;2263;54.654;9.410;2022-07-23T07:59:10;17.90;70.60
4501;DHT22;2263;54.654;9.410;2022-07-23T08:01:38;17.90;70.00
4501;DHT22;2263;54.654;9.410;2022-07-23T08:04:05;17.90;69.90
4501;DHT22;2263;54.654;9.410;2022-07-23T08:06:33;17.90;69.90
4501;DHT22;2263;54.654;9.410;2022-07-23T08:09:00;17.90;69.80
4501;DHT22;2263;54.654;9.410;2022-07-23T08:11:27;17.90;69.90
4501;DHT22;2263;54.654;9.410;2022-07-23T08:13:55;17.90;69.90
4501;DHT22;2263;54.654;9.410;2022-07-23T08:16:22;17.90;69.90
4501;DHT22;2263;54.654;9.410;2022-07-23T08:18:49;17.80;70.00
4501;DHT22;2263;54.654;9.410;2022-07-23T08:21:16;17.80;70.00
4501;DHT22;2263;54.654;9.410;2022-07-23T08:23:44;17.80;70.10
4501;DHT22;2263;54.654;9.410;2022-07-23T08:26:11;17.80;70.10
4501;DHT22;2263;54.654;9.410;2022-07-23T08:28:39;17.80;70.10
4501;DHT22;2263;54.654;9.410;2022-07-23T08:31:06;17.80;70.00
4501;DHT22;2263;54.654;9.410;2022-07-23T08:33:34;17.80;70.00
4501;DHT22;2263;54.654;9.410;2022-07-23T08:36:02;17.80;69.90
4501;DHT22;2263;54.654;9.410;2022-07-23T08:38:32;17.80;69.90
4501;DHT22;2263;54.654;9.410;2022-07-23T08:40:59;17.80;69.90
4501;DHT22;2263;54.654;9.410;2022-07-23T08:43:29;17.80;69.90
4501;DHT22;2263;54.654;9.410;2022-07-23T08:45:59;17.80;69.90
4501;DHT22;2263;54.654;9.410;2022-07-23T08:48:30;17.80;69.90
4501;DHT22;2263;54.654;9.410;2022-07-23T08:51:00;17.80;69.90
4501;DHT22;2263;54.654;9.410;2022-07-23T08:53:29;17.80;69.80
4501;DHT22;2263;54.654;9.410;2022-07-23T08:55:58;17.80;69.90
4501;DHT22;2263;54.654;9.410;2022-07-23T08:58:26;17.80;69.90
4501;DHT22;2263;54.654;9.410;2022-07-23T09:00:55;17.90;70.10
4501;DHT22;2263;54.654;9.410;2022-07-23T09:03:27;17.90;70.00
4501;DHT22;2263;54.654;9.410;2022-07-23T09:05:56;17.90;70.10
4501;DHT22;2263;54.654;9.410;2022-07-23T09:08:26;17.90;70.20
4501;DHT22;2263;54.654;9.410;2022-07-23T09:11:11;17.90;70.10
4501;DHT22;2263;54.654;9.410;2022-07-23T09:13:51;17.90;70.20
4501;DHT22;2263;54.654;9.410;2022-07-23T09:16:26;17.90;70.10
4501;DHT22;2263;54.654;9.410;2022-07-23T09:19:03;17.90;70.10
4501;DHT22;2263;54.654;9.410;2022-07-23T09:21:35;17.90;70.10
4501;DHT22;2263;54.654;9.410;2022-07-23T09:24:07;17.90;70.10
4501;DHT22;2263;54.654;9.410;2022-07-23T09:26:43;17.90;70.10
4501;DHT22;2263;54.654;9.410;2022-07-23T09:29:25;17.90;70.10
4501;DHT22;2263;54.654;9.410;2022-07-23T09:32:00;17.90;70.00
4501;DHT22;2263;54.654;9.410;2022-07-23T09:34:30;17.90;70.10
4501;DHT22;2263;54.654;9.410;2022-07-23T09:37:11;17.90;70.20
4501;DHT22;2263;54.654;9.410;2022-07-23T09:39:40;17.90;70.30
4501;DHT22;2263;54.654;9.410;2022-07-23T09:44:47;17.90;70.30
4501;DHT22;2263;54.654;9.410;2022-07-23T09:47:15;17.90;70.30
4501;DHT22;2263;54.654;9.410;2022-07-23T09:52:46;17.90;70.40
4501;DHT22;2263;54.654;9.410;2022-07-23T09:55:18;17.90;70.50
4501;DHT22;2263;54.654;9.410;2022-07-23T09:57:46;17.80;70.30
4501;DHT22;2263;54.654;9.410;2022-07-23T10:00:17;17.80;70.30
4501;DHT22;2263;54.654;9.410;2022-07-23T10:02:46;17.90;70.50
4501;DHT22;2263;54.654;9.410;2022-07-23T10:05:14;17.90;70.60
4501;DHT22;2263;54.654;9.410;2022-07-23T10:07:45;17.90;70.80
4501;DHT22;2263;54.654;9.410;2022-07-23T10:10:20;17.90;70.90
4501;DHT22;2263;54.654;9.410;2022-07-23T10:12:48;17.90;71.00
4501;DHT22;2263;54.654;9.410;2022-07-23T10:15:18;17.90;71.00
4501;DHT22;2263;54.654;9.410;2022-07-23T10:17:45;17.90;70.90
4501;DHT22;2263;54.654;9.410;2022-07-23T10:20:14;17.90;70.80
4501;DHT22;2263;54.654;9.410;2022-07-23T10:29:27;18.00;71.00
4501;DHT22;2263;54.654;9.410;2022-07-23T10:34:39;18.00;70.80
4501;DHT22;2263;54.654;9.410;2022-07-23T10:37:12;18.00;70.80
4501;DHT22;2263;54.654;9.410;2022-07-23T10:42:45;18.00;70.80
4501;DHT22;2263;54.654;9.410;2022-07-23T10:45:30;18.00;70.80
4501;DHT22;2263;54.654;9.410;2022-07-23T10:48:17;18.00;70.70
4501;DHT22;2263;54.654;9.410;2022-07-23T10:53:57;18.10;70.70
4501;DHT22;2263;54.654;9.410;2022-07-23T10:59:23;18.00;70.60
4501;DHT22;2263;54.654;9.410;2022-07-23T11:01:50;18.00;70.60
4501;DHT22;2263;54.654;9.410;2022-07-23T11:04:19;18.00;70.60
4501;DHT22;2263;54.654;9.410;2022-07-23T11:09:30;18.10;70.70
4501;DHT22;2263;54.654;9.410;2022-07-23T11:17:25;18.10;70.50
4501;DHT22;2263;54.654;9.410;2022-07-23T11:25:13;18.10;70.40
4501;DHT22;2263;54.654;9.410;2022-07-23T11:27:42;18.20;70.40
4501;DHT22;2263;54.654;9.410;2022-07-23T11:35:46;18.20;70.30
4501;DHT22;2263;54.654;9.410;2022-07-23T11:40:45;18.20;70.30
4501;DHT22;2263;54.654;9.410;2022-07-23T11:43:16;18.20;70.30
4501;DHT22;2263;54.654;9.410;2022-07-23T11:45:49;18.20;70.20
4501;DHT22;2263;54.654;9.410;2022-07-23T11:48:22;18.20;70.20
4501;DHT22;2263;54.654;9.410;2022-07-23T11:50:51;18.30;70.20
4501;DHT22;2263;54.654;9.410;2022-07-23T11:53:37;18.30;70.20
4501;DHT22;2263;54.654;9.410;2022-07-23T11:56:06;18.30;70.20
4501;DHT22;2263;54.654;9.410;2022-07-23T11:58:33;18.30;70.20
4501;DHT22;2263;54.654;9.410;2022-07-23T12:01:00;18.30;70.20
4501;DHT22;2263;54.654;9.410;2022-07-23T12:03:28;18.40;70.30
4501;DHT22;2263;54.654;9.410;2022-07-23T12:05:59;18.40;70.40
4501;DHT22;2263;54.654;9.410;2022-07-23T12:08:27;18.30;70.20
4501;DHT22;2263;54.654;9.410;2022-07-23T12:10:54;18.40;70.30
4501;DHT22;2263;54.654;9.410;2022-07-23T12:13:22;18.40;70.20
4501;DHT22;2263;54.654;9.410;2022-07-23T12:15:51;18.40;70.20
4501;DHT22;2263;54.654;9.410;2022-07-23T12:18:24;18.40;70.00
4501;DHT22;2263;54.654;9.410;2022-07-23T12:20:56;18.40;70.00
4501;DHT22;2263;54.654;9.410;2022-07-23T12:23:25;18.40;70.60
4501;DHT22;2263;54.654;9.410;2022-07-23T12:25:53;18.40;69.90
4501;DHT22;2263;54.654;9.410;2022-07-23T12:28:28;18.40;70.00
4501;DHT22;2263;54.654;9.410;2022-07-23T12:30:57;18.40;69.90
4501;DHT22;2263;54.654;9.410;2022-07-23T12:33:38;18.40;69.80
4501;DHT22;2263;54.654;9.410;2022-07-23T12:36:07;18.40;69.80
4501;DHT22;2263;54.654;9.410;2022-07-23T12:38:43;18.40;69.80
4501;DHT22;2263;54.654;9.410;2022-07-23T12:41:11;18.40;69.70
4501;DHT22;2263;54.654;9.410;2022-07-23T12:43:43;18.40;69.60
4501;DHT22;2263;54.654;9.410;2022-07-23T12:46:19;18.50;69.70
4501;DHT22;2263;54.654;9.410;2022-07-23T12:51:39;18.50;69.80
4501;DHT22;2263;54.654;9.410;2022-07-23T12:54:12;18.50;69.80
4501;DHT22;2263;54.654;9.410;2022-07-23T12:56:44;18.50;69.90
4501;DHT22;2263;54.654;9.410;2022-07-23T12:59:15;18.50;69.80
4501;DHT22;2263;54.654;9.410;2022-07-23T13:01:56;18.50;70.00
4501;DHT22;2263;54.654;9.410;2022-07-23T13:04:26;18.60;70.00
4501;DHT22;2263;54.654;9.410;2022-07-23T13:06:56;18.50;70.00
4501;DHT22;2263;54.654;9.410;2022-07-23T13:09:28;18.50;70.10
4501;DHT22;2263;54.654;9.410;2022-07-23T13:11:59;18.60;70.10
4501;DHT22;2263;54.654;9.410;2022-07-23T13:14:28;18.60;70.10
4501;DHT22;2263;54.654;9.410;2022-07-23T13:16:56;18.60;70.10
4501;DHT22;2263;54.654;9.410;2022-07-23T13:19:26;18.60;70.00
4501;DHT22;2263;54.654;9.410;2022-07-23T13:21:56;18.60;70.00
4501;DHT22;2263;54.654;9.410;2022-07-23T13:24:24;18.60;70.00
4501;DHT22;2263;54.654;9.410;2022-07-23T13:26:53;18.60;70.00
4501;DHT22;2263;54.654;9.410;2022-07-23T13:29:20;18.70;70.00
4501;DHT22;2263;54.654;9.410;2022-07-23T13:31:47;18.70;69.90
4501;DHT22;2263;54.654;9.410;2022-07-23T13:34:17;18.70;69.90
4501;DHT22;2263;54.654;9.410;2022-07-23T13:36:46;18.70;69.70
4501;DHT22;2263;54.654;9.410;2022-07-23T13:39:16;18.70;69.50
4501;DHT22;2263;54.654;9.410;2022-07-23T13:41:43;18.70;69.50
4501;DHT22;2263;54.654;9.410;2022-07-23T13:44:17;18.70;69.40
4501;DHT22;2263;54.654;9.410;2022-07-23T13:46:48;18.70;69.40
4501;DHT22;2263;54.654;9.410;2022-07-23T13:49:15;18.70;69.30
4501;DHT22;2263;54.654;9.410;2022-07-23T13:51:43;18.70;69.30
4501;DHT22;2263;54.654;9.410;2022-07-23T13:54:10;18.70;69.20
4501;DHT22;2263;54.654;9.410;2022-07-23T13:56:38;18.70;69.20
4501;DHT22;2263;54.654;9.410;2022-07-23T13:59:05;18.70;69.20
4501;DHT22;2263;54.654;9.410;2022-07-23T14:01:33;18.70;69.30
4501;DHT22;2263;54.654;9.410;2022-07-23T14:04:21;18.70;69.30
4501;DHT22;2263;54.654;9.410;2022-07-23T14:06:48;18.70;69.30
4501;DHT22;2263;54.654;9.410;2022-07-23T14:09:21;18.80;69.40
4501;DHT22;2263;54.654;9.410;2022-07-23T14:11:52;18.80;69.40
4501;DHT22;2263;54.654;9.410;2022-07-23T14:14:19;18.80;69.30
4501;DHT22;2263;54.654;9.410;2022-07-23T14:16:46;18.80;69.40
4501;DHT22;2263;54.654;9.410;2022-07-23T14:19:13;18.90;69.50
4501;DHT22;2263;54.654;9.410;2022-07-23T14:21:40;18.90;69.30
4501;DHT22;2263;54.654;9.410;2022-07-23T14:24:08;18.90;69.20
4501;DHT22;2263;54.654;9.410;2022-07-23T14:26:36;18.90;69.10
4501;DHT22;2263;54.654;9.410;2022-07-23T14:29:04;18.90;69.20
4501;DHT22;2263;54.654;9.410;2022-07-23T14:31:34;18.90;69.20
4501;DHT22;2263;54.654;9.410;2022-07-23T14:34:03;18.90;69.10
4501;DHT22;2263;54.654;9.410;2022-07-23T14:36:30;18.90;69.00
4501;DHT22;2263;54.654;9.410;2022-07-23T14:38:57;18.90;69.00
4501;DHT22;2263;54.654;9.410;2022-07-23T14:41:25;18.90;69.00
4501;DHT22;2263;54.654;9.410;2022-07-23T14:43:55;18.90;69.00
4501;DHT22;2263;54.654;9.410;2022-07-23T14:46:22;18.90;69.00
4501;DHT22;2263;54.654;9.410;2022-07-23T14:48:50;18.90;69.00
4501;DHT22;2263;54.654;9.410;2022-07-23T14:51:17;18.90;68.90
4501;DHT22;2263;54.654;9.410;2022-07-23T14:53:45;18.90;68.60
4501;DHT22;2263;54.654;9.410;2022-07-23T14:56:12;18.90;68.50
4501;DHT22;2263;54.654;9.410;2022-07-23T14:58:41;18.90;68.50
4501;DHT22;2263;54.654;9.410;2022-07-23T15:01:09;18.90;68.40
4501;DHT22;2263;54.654;9.410;2022-07-23T15:03:37;18.90;68.40
4501;DHT22;2263;54.654;9.410;2022-07-23T15:06:25;18.90;68.20
4501;DHT22;2263;54.654;9.410;2022-07-23T15:08:52;18.90;68.10
4501;DHT22;2263;54.654;9.410;2022-07-23T15:11:19;18.90;67.90
4501;DHT22;2263;54.654;9.410;2022-07-23T15:13:47;18.90;68.70
4501;DHT22;2263;54.654;9.410;2022-07-23T15:16:15;18.90;67.80
4501;DHT22;2263;54.654;9.410;2022-07-23T15:18:43;18.90;67.90
4501;DHT22;2263;54.654;9.410;2022-07-23T15:21:10;18.90;67.80
4501;DHT22;2263;54.654;9.410;2022-07-23T15:23:39;18.90;67.70
4501;DHT22;2263;54.654;9.410;2022-07-23T15:26:07;18.90;67.60
4501;DHT22;2263;54.654;9.410;2022-07-23T15:28:36;18.90;67.60
4501;DHT22;2263;54.654;9.410;2022-07-23T15:31:04;18.90;67.70
4501;DHT22;2263;54.654;9.410;2022-07-23T15:33:34;18.90;67.60
4501;DHT22;2263;54.654;9.410;2022-07-23T15:36:04;18.90;67.60
4501;DHT22;2263;54.654;9.410;2022-07-23T15:38:31;18.90;67.60
4501;DHT22;2263;54.654;9.410;2022-07-23T15:40:59;18.90;67.50
4501;DHT22;2263;54.654;9.410;2022-07-23T15:43:26;18.90;67.60
4501;DHT22;2263;54.654;9.410;2022-07-23T15:45:54;18.90;67.60
4501;DHT22;2263;54.654;9.410;2022-07-23T15:48:21;19.00;67.60
4501;DHT22;2263;54.654;9.410;2022-07-23T15:50:49;18.90;67.40
4501;DHT22;2263;54.654;9.410;2022-07-23T15:53:17;18.90;67.20
4501;DHT22;2263;54.654;9.410;2022-07-23T15:56:04;18.90;67.20
4501;DHT22;2263;54.654;9.410;2022-07-23T15:58:31;18.90;67.30
4501;DHT22;2263;54.654;9.410;2022-07-23T16:01:00;18.90;67.10
4501;DHT22;2263;54.654;9.410;2022-07-23T16:03:30;18.90;67.80
4501;DHT22;2263;54.654;9.410;2022-07-23T16:05:59;19.00;67.20
4501;DHT22;2263;54.654;9.410;2022-07-23T16:08:26;18.90;67.20
4501;DHT22;2263;54.654;9.410;2022-07-23T16:10:54;19.00;67.10
4501;DHT22;2263;54.654;9.410;2022-07-23T16:13:24;19.00;67.20
4501;DHT22;2263;54.654;9.410;2022-07-23T16:15:52;18.90;67.10
4501;DHT22;2263;54.654;9.410;2022-07-23T16:18:22;19.00;67.00
4501;DHT22;2263;54.654;9.410;2022-07-23T16:20:54;19.00;67.00
4501;DHT22;2263;54.654;9.410;2022-07-23T16:23:22;19.00;67.00
4501;DHT22;2263;54.654;9.410;2022-07-23T16:25:49;19.00;66.80
4501;DHT22;2263;54.654;9.410;2022-07-23T16:28:16;19.00;66.80
4501;DHT22;2263;54.654;9.410;2022-07-23T16:30:44;19.00;66.90
4501;DHT22;2263;54.654;9.410;2022-07-23T16:33:11;19.00;66.80
4501;DHT22;2263;54.654;9.410;2022-07-23T16:35:38;19.00;66.70
4501;DHT22;2263;54.654;9.410;2022-07-23T16:38:06;19.00;66.60
4501;DHT22;2263;54.654;9.410;2022-07-23T16:40:33;18.90;66.50
4501;DHT22;2263;54.654;9.410;2022-07-23T16:43:01;18.90;66.50
4501;DHT22;2263;54.654;9.410;2022-07-23T16:45:28;18.90;66.60
4501;DHT22;2263;54.654;9.410;2022-07-23T16:47:57;18.90;66.50
4501;DHT22;2263;54.654;9.410;2022-07-23T16:50:24;19.00;66.20
4501;DHT22;2263;54.654;9.410;2022-07-23T16:52:52;18.90;66.50
4501;DHT22;2263;54.654;9.410;2022-07-23T16:55:19;18.90;66.50
4501;DHT22;2263;54.654;9.410;2022-07-23T16:57:46;18.90;66.20
4501;DHT22;2263;54.654;9.410;2022-07-23T17:00:14;19.00;66.50